Time;durP1;ratioP1;P1;durP2;ratioP2;P2;SDS_P1;SDS_P2;PMS_P1;PMS_P2;Temp;Humidity;BMP_temperature;BMP_pressure;BME280_temperature;BME280_humidity;BME280_pressure;Samples;Min_cycle;Max_cycle;Signal;HPM_P1;HPM_P2
2023/04/17 00:00:15;;;;;;;46.78;42.05;;;10.80;99.90;;;;;;5103393;28;20416;-66
2023/04/17 00:02:43;;;;;;;47.97;43.17;;;10.80;99.90;;;;;;5102623;28;20431;-65
2023/04/17 00:05:12;;;;;;;48.63;43.83;;;10.80;99.90;;;;;;5103622;28;20934;-65
2023/04/17 00:07:40;;;;;;;49.65;44.75;;;10.80;99.90;;;;;;5104466;28;20415;-66
2023/04/17 00:10:08;;;;;;;48.00;43.13;;;10.80;99.90;;;;;;5104368;28;20419;-66
2023/04/17 00:12:35;;;;;;;49.72;44.63;;;10.70;99.90;;;;;;5099763;28;20493;-66
2023/04/17 00:15:02;;;;;;;48.95;43.95;;;10.80;99.90;;;;;;5103379;28;20428;-66
2023/04/17 00:17:29;;;;;;;49.30;44.50;;;10.80;99.90;;;;;;5102987;28;20933;-66
2023/04/17 00:19:56;;;;;;;48.90;44.00;;;10.80;99.90;;;;;;5099838;28;20801;-66
2023/04/17 00:22:24;;;;;;;49.35;44.38;;;10.70;99.90;;;;;;5102925;28;20435;-66
2023/04/17 00:24:51;;;;;;;48.88;43.80;;;10.70;99.90;;;;;;5101594;28;20453;-66
2023/04/17 00:27:17;;;;;;;49.50;44.58;;;10.70;99.90;;;;;;5101543;28;20455;-66
2023/04/17 00:29:44;;;;;;;49.90;45.08;;;10.70;99.90;;;;;;5102548;28;20523;-66
2023/04/17 00:32:11;;;;;;;48.60;43.75;;;10.70;99.90;;;;;;5102693;28;20420;-66
2023/04/17 00:34:39;;;;;;;48.53;43.67;;;10.70;99.90;;;;;;5102807;28;20419;-66
2023/04/17 00:37:06;;;;;;;46.50;41.80;;;10.70;99.90;;;;;;5102751;28;20505;-66
2023/04/17 00:39:34;;;;;;;48.55;43.85;;;10.70;99.90;;;;;;5097758;28;20525;-68
2023/04/17 00:42:01;;;;;;;48.42;43.50;;;10.70;99.90;;;;;;5102386;28;20420;-67
2023/04/17 00:44:28;;;;;;;47.80;43.00;;;10.70;99.90;;;;;;5103216;28;20427;-66
2023/04/17 00:46:55;;;;;;;47.53;42.63;;;10.70;99.90;;;;;;5102282;28;20480;-66
2023/04/17 00:49:22;;;;;;;49.08;44.05;;;10.70;99.90;;;;;;5103152;28;20477;-66
2023/04/17 00:51:49;;;;;;;47.42;42.67;;;10.70;99.90;;;;;;5103117;28;20461;-66
2023/04/17 00:54:17;;;;;;;48.40;43.67;;;10.70;99.90;;;;;;5106288;28;20808;-67
2023/04/17 00:56:46;;;;;;;48.70;43.60;;;10.70;99.90;;;;;;5105668;28;20424;-65
2023/04/17 00:59:15;;;;;;;50.17;44.88;;;10.70;99.90;;;;;;5099731;28;20468;-66
2023/04/17 01:01:42;;;;;;;48.75;43.60;;;10.60;99.90;;;;;;5108011;28;20507;-66
2023/04/17 01:04:09;;;;;;;49.70;44.35;;;10.60;99.90;;;;;;5107501;28;20423;-65
2023/04/17 01:06:36;;;;;;;49.05;44.05;;;10.60;99.90;;;;;;5107757;28;20412;-66
2023/04/17 01:09:03;;;;;;;49.15;44.08;;;10.60;99.90;;;;;;5106343;28;20416;-66
2023/04/17 01:11:30;;;;;;;48.00;43.47;;;10.60;99.90;;;;;;5107554;28;20464;-66
2023/04/17 01:13:58;;;;;;;48.38;43.58;;;10.60;99.90;;;;;;5106099;28;20442;-66
2023/04/17 01:16:26;;;;;;;49.33;44.30;;;10.60;99.90;;;;;;5107030;28;20420;-66
2023/04/17 01:18:53;;;;;;;49.92;44.83;;;10.50;99.90;;;;;;5107246;28;20443;-66
2023/04/17 01:21:19;;;;;;;48.60;43.70;;;10.50;99.90;;;;;;5107377;28;20424;-66
2023/04/17 01:23:50;;;;;;;48.75;43.75;;;10.50;99.90;;;;;;5103751;28;20424;-66
2023/04/17 01:26:20;;;;;;;50.20;45.20;;;10.50;99.90;;;;;;5105091;28;20724;-66
2023/04/17 01:28:51;;;;;;;48.92;43.88;;;10.50;99.90;;;;;;5106732;28;20752;-66
2023/04/17 01:31:18;;;;;;;47.60;42.90;;;10.50;99.90;;;;;;5106434;28;20773;-66
2023/04/17 01:33:45;;;;;;;48.33;43.42;;;10.50;99.90;;;;;;5105592;28;20889;-66
2023/04/17 01:36:11;;;;;;;47.92;43.22;;;10.50;99.90;;;;;;5102528;28;20500;-66
2023/04/17 01:38:39;;;;;;;49.72;44.72;;;10.50;99.90;;;;;;5104103;28;20435;-66
2023/04/17 01:41:09;;;;;;;49.67;44.65;;;10.60;99.90;;;;;;5105809;28;20630;-66
2023/04/17 01:43:39;;;;;;;49.80;44.85;;;10.50;99.90;;;;;;5104514;28;20420;-66
2023/04/17 01:46:05;;;;;;;49.97;44.88;;;10.50;99.90;;;;;;5105785;28;20416;-67
2023/04/17 01:48:32;;;;;;;49.65;44.65;;;10.50;99.90;;;;;;5105125;28;20408;-66
2023/04/17 01:50:59;;;;;;;49.40;44.60;;;10.50;99.90;;;;;;5102792;28;20428;-65
2023/04/17 01:53:26;;;;;;;49.92;45.22;;;10.60;99.90;;;;;;5103455;28;20520;-66
2023/04/17 01:55:53;;;;;;;49.13;44.03;;;10.50;99.90;;;;;;5104479;28;20499;-66
2023/04/17 01:58:20;;;;;;;49.83;44.80;;;10.50;99.90;;;;;;5105233;28;20533;-68
2023/04/17 02:00:48;;;;;;;48.90;43.88;;;10.50;99.90;;;;;;5104072;28;20417;-65
2023/04/17 02:03:15;;;;;;;47.35;42.67;;;10.60;99.90;;;;;;5103388;28;20439;-65
2023/04/17 02:05:45;;;;;;;49.80;44.90;;;10.50;99.90;;;;;;5104720;28;20416;-67
2023/04/17 02:08:12;;;;;;;47.63;43.03;;;10.50;99.90;;;;;;5103977;28;20535;-66
2023/04/17 02:10:39;;;;;;;48.75;43.75;;;10.60;99.90;;;;;;5105378;28;20418;-66
2023/04/17 02:13:06;;;;;;;49.08;44.33;;;10.50;99.90;;;;;;5103523;28;20522;-66
2023/04/17 02:15:33;;;;;;;46.97;42.38;;;10.60;99.90;;;;;;5105399;28;20583;-66
2023/04/17 02:18:01;;;;;;;48.08;43.17;;;10.60;99.90;;;;;;5105593;28;20426;-66
2023/04/17 02:20:27;;;;;;;48.17;43.08;;;10.60;99.90;;;;;;5106459;28;20415;-66
2023/04/17 02:22:54;;;;;;;47.88;42.97;;;10.50;99.90;;;;;;5103956;28;20431;-66
2023/04/17 02:25:21;;;;;;;49.65;44.55;;;10.50;99.90;;;;;;5105072;28;20423;-67
2023/04/17 02:27:48;;;;;;;47.40;42.70;;;10.50;99.90;;;;;;5104449;28;20420;-66
2023/04/17 02:30:15;;;;;;;49.10;44.22;;;10.50;99.90;;;;;;5105231;28;20755;-66
2023/04/17 02:32:41;;;;;;;47.95;43.30;;;10.50;99.90;;;;;;5105510;28;20511;-66
2023/04/17 02:35:10;;;;;;;47.67;42.97;;;10.40;99.90;;;;;;5104458;28;20412;-66
2023/04/17 02:37:36;;;;;;;47.83;43.10;;;10.50;99.90;;;;;;5103201;28;20917;-66
2023/04/17 02:40:05;;;;;;;47.10;42.40;;;10.40;99.90;;;;;;5104743;28;20408;-66
2023/04/17 02:42:32;;;;;;;47.10;42.50;;;10.50;99.90;;;;;;5104090;28;20583;-66
2023/04/17 02:44:59;;;;;;;48.45;43.55;;;10.50;99.90;;;;;;5103718;28;21157;-66
2023/04/17 02:47:26;;;;;;;48.58;43.88;;;10.50;99.90;;;;;;5104343;28;20432;-66
2023/04/17 02:49:54;;;;;;;46.05;41.40;;;10.50;99.90;;;;;;5104222;28;20729;-66
2023/04/17 02:52:22;;;;;;;47.53;42.85;;;10.50;99.90;;;;;;5103104;28;20435;-66
2023/04/17 02:54:51;;;;;;;46.50;42.10;;;10.50;99.90;;;;;;5104696;28;20416;-66
2023/04/17 02:57:18;;;;;;;47.10;42.45;;;10.60;99.90;;;;;;5105136;28;20411;-66
2023/04/17 02:59:45;;;;;;;45.33;40.73;;;10.60;99.90;;;;;;5104540;28;20495;-66
2023/04/17 03:02:13;;;;;;;46.72;41.92;;;10.60;99.90;;;;;;5104870;28;20515;-66
2023/04/17 03:04:40;;;;;;;46.88;42.42;;;10.60;99.90;;;;;;5104767;28;20427;-66
2023/04/17 03:07:08;;;;;;;46.40;42.00;;;10.60;99.90;;;;;;5104079;28;20686;-66
2023/04/17 03:09:37;;;;;;;46.25;41.83;;;10.60;99.90;;;;;;5103682;28;20459;-66
2023/04/17 03:12:04;;;;;;;47.17;42.58;;;10.60;99.90;;;;;;5098107;28;20436;-65
2023/04/17 03:14:31;;;;;;;46.00;41.70;;;10.60;99.90;;;;;;5101952;28;20508;-66
2023/04/17 03:16:58;;;;;;;45.13;40.65;;;10.60;99.90;;;;;;5103923;28;20415;-66
2023/04/17 03:19:25;;;;;;;44.95;40.72;;;10.60;99.90;;;;;;5099719;28;20439;-66
2023/04/17 03:21:51;;;;;;;48.55;43.83;;;10.50;99.90;;;;;;5102991;28;20451;-66
2023/04/17 03:24:18;;;;;;;45.37;40.87;;;10.50;99.90;;;;;;5097227;28;20847;-66
2023/04/17 03:26:46;;;;;;;45.07;40.67;;;10.50;99.90;;;;;;5104431;28;20408;-66
2023/04/17 03:29:13;;;;;;;45.97;41.47;;;10.50;99.90;;;;;;5103939;28;20751;-66
2023/04/17 03:31:39;;;;;;;46.38;41.83;;;10.50;99.90;;;;;;5103450;28;20530;-66
2023/04/17 03:34:06;;;;;;;46.90;42.20;;;10.50;99.90;;;;;;5102860;28;20419;-67
2023/04/17 03:36:33;;;;;;;45.95;41.53;;;10.50;99.90;;;;;;5101179;27;20434;-67
2023/04/17 03:39:00;;;;;;;46.97;42.28;;;10.50;99.90;;;;;;5104141;28;20874;-67
2023/04/17 03:41:26;;;;;;;45.30;41.00;;;10.50;99.90;;;;;;5104924;28;20534;-67
2023/04/17 03:43:54;;;;;;;47.23;42.83;;;10.40;99.90;;;;;;5102564;28;20428;-67
2023/04/17 03:46:21;;;;;;;45.80;41.42;;;10.50;99.90;;;;;;5103524;28;20862;-67
2023/04/17 03:48:48;;;;;;;46.55;42.05;;;10.40;99.90;;;;;;5103210;28;20482;-67
2023/04/17 03:51:15;;;;;;;45.70;41.20;;;10.40;99.90;;;;;;5096483;28;20436;-67
2023/04/17 03:53:42;;;;;;;45.53;41.30;;;10.50;99.90;;;;;;5103178;28;20431;-67
2023/04/17 03:56:09;;;;;;;44.55;40.17;;;10.40;99.90;;;;;;5102371;28;21019;-66
2023/04/17 03:58:35;;;;;;;45.28;40.85;;;10.40;99.90;;;;;;5103035;28;20835;-66
2023/04/17 04:01:03;;;;;;;45.45;40.60;;;10.40;99.90;;;;;;5103948;28;20440;-66
2023/04/17 04:03:30;;;;;;;47.67;43.00;;;10.40;99.90;;;;;;5102090;28;20432;-66
2023/04/17 04:05:57;;;;;;;44.35;40.17;;;10.40;99.90;;;;;;5101174;28;20428;-66
2023/04/17 04:08:23;;;;;;;44.58;40.15;;;10.40;99.90;;;;;;5103498;28;20646;-66
2023/04/17 04:10:50;;;;;;;45.28;40.95;;;10.50;99.90;;;;;;5103249;28;20416;-65
2023/04/17 04:13:17;;;;;;;45.03;40.53;;;10.40;99.90;;;;;;5101224;28;20447;-66
2023/04/17 04:15:44;;;;;;;43.93;39.73;;;10.40;99.90;;;;;;5101441;28;20419;-66
2023/04/17 04:18:12;;;;;;;45.05;40.53;;;10.40;99.90;;;;;;5101724;28;20842;-66
2023/04/17 04:20:39;;;;;;;44.75;40.55;;;10.40;99.90;;;;;;5101629;28;20490;-66
2023/04/17 04:23:05;;;;;;;44.00;39.80;;;10.40;99.90;;;;;;5102127;28;20538;-66
2023/04/17 04:25:32;;;;;;;43.67;39.57;;;10.40;99.90;;;;;;5103355;28;20498;-66
2023/04/17 04:28:00;;;;;;;44.22;39.95;;;10.40;99.90;;;;;;5106190;28;20418;-66
2023/04/17 04:30:29;;;;;;;44.88;40.58;;;10.40;99.90;;;;;;5107522;28;20739;-66
2023/04/17 04:32:59;;;;;;;43.65;39.53;;;10.30;99.90;;;;;;5105631;28;20884;-66
2023/04/17 04:35:29;;;;;;;44.03;40.03;;;10.30;99.90;;;;;;5104138;28;20444;-67
2023/04/17 04:38:01;;;;;;;44.50;40.50;;;10.30;99.90;;;;;;5107799;28;20525;-66
2023/04/17 04:40:29;;;;;;;43.50;39.50;;;10.30;99.90;;;;;;5106973;28;20412;-67
2023/04/17 04:42:57;;;;;;;42.80;38.90;;;10.30;99.90;;;;;;5105335;27;20439;-67
2023/04/17 04:45:24;;;;;;;42.72;38.92;;;10.30;99.90;;;;;;5107850;27;20455;-72
2023/04/17 04:47:50;;;;;;;41.67;37.77;;;10.30;99.90;;;;;;5101172;28;20538;-71
2023/04/17 04:50:18;;;;;;;41.00;37.20;;;10.30;99.90;;;;;;5101883;27;20449;-70
2023/04/17 04:52:46;;;;;;;42.80;38.85;;;10.40;99.90;;;;;;5102308;28;20431;-70
2023/04/17 04:55:13;;;;;;;40.92;37.13;;;10.40;99.90;;;;;;5106484;28;20412;-73
2023/04/17 04:57:40;;;;;;;43.17;39.05;;;10.30;99.90;;;;;;5097244;28;20516;-71
2023/04/17 05:00:08;;;;;;;41.00;37.25;;;10.30;99.90;;;;;;5105720;28;20485;-71
2023/04/17 05:02:35;;;;;;;42.03;38.03;;;10.30;99.90;;;;;;5105614;28;20829;-71
2023/04/17 05:05:03;;;;;;;42.55;38.72;;;10.30;99.90;;;;;;5104292;28;20420;-73
2023/04/17 05:07:29;;;;;;;41.00;37.20;;;10.30;99.90;;;;;;5096660;28;20429;-74
2023/04/17 05:09:57;;;;;;;40.05;36.35;;;10.30;99.90;;;;;;5103602;28;20419;-77
2023/04/17 05:12:24;;;;;;;41.13;37.30;;;10.40;99.90;;;;;;5100144;28;20512;-71
2023/04/17 05:14:51;;;;;;;39.25;35.75;;;10.40;99.90;;;;;;5105152;28;20515;-74
2023/04/17 05:17:17;;;;;;;39.58;35.97;;;10.40;99.90;;;;;;5103696;28;20439;-73
2023/04/17 05:19:44;;;;;;;37.95;34.55;;;10.40;99.90;;;;;;5100577;28;20875;-70
2023/04/17 05:22:11;;;;;;;38.10;34.67;;;10.40;99.90;;;;;;5099805;28;20583;-71
2023/04/17 05:24:38;;;;;;;40.08;36.28;;;10.40;99.90;;;;;;5099734;28;20428;-70
2023/04/17 05:27:06;;;;;;;38.65;35.25;;;10.40;99.90;;;;;;5104918;28;20415;-70
2023/04/17 05:29:33;;;;;;;37.60;34.20;;;10.40;99.90;;;;;;5104203;28;20515;-71
2023/04/17 05:31:59;;;;;;;37.17;33.88;;;10.40;99.90;;;;;;5104910;28;20428;-71
2023/04/17 05:34:26;;;;;;;38.03;34.60;;;10.40;99.90;;;;;;5100035;28;20417;-69
2023/04/17 05:36:53;;;;;;;36.70;33.40;;;10.40;99.90;;;;;;5102709;28;20412;-70
2023/04/17 05:39:20;;;;;;;35.13;32.03;;;10.40;99.90;;;;;;5103454;28;21042;-69
2023/04/17 05:41:47;;;;;;;36.78;33.47;;;10.40;99.90;;;;;;5101727;28;20436;-71
2023/04/17 05:44:15;;;;;;;37.97;34.58;;;10.40;99.90;;;;;;5104811;28;20775;-71
2023/04/17 05:46:42;;;;;;;36.38;33.30;;;10.40;99.90;;;;;;5098100;28;20469;-71
2023/04/17 05:49:08;;;;;;;38.50;35.05;;;10.40;99.90;;;;;;5102414;28;20538;-68
2023/04/17 05:51:35;;;;;;;37.05;33.70;;;10.50;99.90;;;;;;5103327;28;20822;-69
2023/04/17 05:54:02;;;;;;;36.00;32.80;;;10.50;99.90;;;;;;5105505;28;20415;-69
2023/04/17 05:56:30;;;;;;;37.22;33.83;;;10.50;99.90;;;;;;5105380;28;20432;-69
2023/04/17 05:58:56;;;;;;;36.30;33.10;;;10.50;99.90;;;;;;5105225;28;20557;-71
2023/04/17 06:01:25;;;;;;;37.50;34.00;;;10.50;99.90;;;;;;5106034;28;20739;-69
2023/04/17 06:03:51;;;;;;;36.58;33.38;;;10.50;99.90;;;;;;5102381;28;20487;-70
2023/04/17 06:06:18;;;;;;;36.00;32.80;;;10.50;99.90;;;;;;5101983;28;20424;-69
2023/04/17 06:08:45;;;;;;;35.03;31.83;;;10.50;99.90;;;;;;5103528;28;20508;-70
2023/04/17 06:11:12;;;;;;;34.33;31.23;;;10.60;99.90;;;;;;5103569;28;20436;-70
2023/04/17 06:13:38;;;;;;;36.60;33.42;;;10.60;99.90;;;;;;5104688;28;20427;-70
2023/04/17 06:16:05;;;;;;;35.20;32.10;;;10.60;99.90;;;;;;5102479;28;20448;-69
2023/04/17 06:18:34;;;;;;;35.00;32.00;;;10.70;99.90;;;;;;5105310;28;20496;-69
2023/04/17 06:21:01;;;;;;;31.92;29.13;;;10.70;99.90;;;;;;5098942;28;20429;-70
2023/04/17 06:23:27;;;;;;;33.42;30.42;;;10.80;99.90;;;;;;5099380;28;20811;-70
2023/04/17 06:25:54;;;;;;;32.40;29.60;;;10.80;99.90;;;;;;5097480;28;20436;-70
2023/04/17 06:28:21;;;;;;;31.80;29.00;;;10.80;99.90;;;;;;5095883;28;20476;-73
2023/04/17 06:30:48;;;;;;;32.40;29.70;;;10.80;99.90;;;;;;5102534;28;20917;-70
2023/04/17 06:33:14;;;;;;;31.63;28.88;;;10.90;99.90;;;;;;5102724;28;20420;-72
2023/04/17 06:35:43;;;;;;;33.13;30.13;;;10.90;99.90;;;;;;5099495;28;21177;-73
2023/04/17 06:38:09;;;;;;;31.67;28.88;;;10.90;99.90;;;;;;5100584;28;20431;-71
2023/04/17 06:40:36;;;;;;;31.75;29.05;;;11.00;99.90;;;;;;5098977;28;20889;-71
2023/04/17 06:43:03;;;;;;;32.45;29.58;;;11.10;99.90;;;;;;5101239;28;20792;-72
2023/04/17 06:45:29;;;;;;;32.53;29.63;;;11.10;99.90;;;;;;5100770;28;20520;-72
2023/04/17 06:47:56;;;;;;;33.00;30.10;;;11.10;99.90;;;;;;5101660;28;20427;-71
2023/04/17 06:50:23;;;;;;;31.80;29.20;;;11.20;99.90;;;;;;5101489;28;20451;-68
2023/04/17 06:52:51;;;;;;;31.70;29.10;;;11.20;99.90;;;;;;5102988;28;20427;-68
2023/04/17 06:55:18;;;;;;;32.40;29.60;;;11.20;99.90;;;;;;5100990;28;20438;-68
2023/04/17 06:57:45;;;;;;;32.80;29.90;;;11.20;99.70;;;;;;5099426;28;20596;-68
2023/04/17 07:00:13;;;;;;;31.30;28.42;;;11.30;99.90;;;;;;5095302;28;20442;-68
2023/04/17 07:02:39;;;;;;;31.40;28.50;;;11.30;99.50;;;;;;5102563;28;20430;-67
2023/04/17 07:05:07;;;;;;;33.90;30.90;;;11.30;99.40;;;;;;5097970;28;20433;-67
2023/04/17 07:07:34;;;;;;;31.77;28.87;;;11.30;99.30;;;;;;5100640;28;20435;-67
2023/04/17 07:10:03;;;;;;;30.97;28.27;;;11.40;99.00;;;;;;5102022;28;20561;-68
2023/04/17 07:12:30;;;;;;;32.50;29.52;;;11.40;98.90;;;;;;5102534;28;20812;-67
2023/04/17 07:14:56;;;;;;;31.77;28.83;;;11.50;98.60;;;;;;5103139;28;20427;-68
2023/04/17 07:17:23;;;;;;;31.50;28.70;;;11.50;98.60;;;;;;5102081;28;20916;-67
2023/04/17 07:19:50;;;;;;;31.27;28.67;;;11.60;98.30;;;;;;5101789;28;20540;-68
2023/04/17 07:22:17;;;;;;;30.70;28.03;;;11.60;98.00;;;;;;5090897;28;20428;-70
2023/04/17 07:24:43;;;;;;;32.13;29.30;;;11.60;97.80;;;;;;5092561;28;20466;-69
2023/04/17 07:27:11;;;;;;;32.78;29.88;;;11.60;97.60;;;;;;5105020;27;20423;-70
2023/04/17 07:29:38;;;;;;;32.08;29.38;;;11.70;97.80;;;;;;5098503;28;20443;-69
2023/04/17 07:32:05;;;;;;;32.05;29.35;;;11.60;97.90;;;;;;5094760;28;20507;-68
2023/04/17 07:34:33;;;;;;;31.92;29.13;;;11.60;97.80;;;;;;5100395;28;20420;-69
2023/04/17 07:37:00;;;;;;;33.73;30.70;;;11.60;98.00;;;;;;5101362;28;20851;-68
2023/04/17 07:39:30;;;;;;;33.78;30.67;;;11.60;98.20;;;;;;5103011;28;21049;-69
2023/04/17 07:41:57;;;;;;;33.30;30.40;;;11.60;98.00;;;;;;5103630;28;20496;-69
2023/04/17 07:44:25;;;;;;;33.45;30.63;;;11.60;97.90;;;;;;5095924;28;20424;-70
2023/04/17 07:46:51;;;;;;;32.97;29.98;;;11.70;97.90;;;;;;5098125;27;20428;-69
2023/04/17 07:49:18;;;;;;;32.45;29.55;;;11.70;97.10;;;;;;5101016;28;20890;-68
2023/04/17 07:51:45;;;;;;;32.40;29.50;;;11.80;97.30;;;;;;5101389;28;20447;-67
2023/04/17 07:54:12;;;;;;;31.30;28.60;;;11.80;96.90;;;;;;5101090;28;20735;-69
2023/04/17 07:56:39;;;;;;;31.15;28.55;;;11.80;96.80;;;;;;5099767;28;20533;-69
2023/04/17 07:59:06;;;;;;;31.00;28.20;;;11.80;96.80;;;;;;5101578;28;20440;-69
2023/04/17 08:01:34;;;;;;;32.05;29.15;;;11.80;96.70;;;;;;5101756;28;20897;-69
2023/04/17 08:04:00;;;;;;;30.10;27.50;;;11.80;97.00;;;;;;5103929;28;20436;-67
2023/04/17 08:06:27;;;;;;;28.70;26.10;;;11.80;96.60;;;;;;5106084;28;20436;-67
2023/04/17 08:08:54;;;;;;;31.23;28.52;;;11.80;96.50;;;;;;5105851;28;20419;-67
2023/04/17 08:11:21;;;;;;;30.92;28.23;;;11.70;96.60;;;;;;5104379;28;20420;-70
2023/04/17 08:13:47;;;;;;;30.50;27.70;;;11.70;96.80;;;;;;5106196;28;20602;-72
2023/04/17 08:16:14;;;;;;;30.40;27.80;;;11.70;96.70;;;;;;5105676;27;20538;-72
2023/04/17 08:18:42;;;;;;;29.88;27.17;;;11.80;96.90;;;;;;5103870;27;20477;-69
2023/04/17 08:21:09;;;;;;;28.63;26.23;;;11.80;96.60;;;;;;5108614;28;20428;-68
2023/04/17 08:23:36;;;;;;;28.75;26.25;;;12.00;96.60;;;;;;5105686;28;20460;-69
2023/04/17 08:26:03;;;;;;;29.10;26.60;;;12.20;96.20;;;;;;5104918;27;20428;-69
2023/04/17 08:28:30;;;;;;;28.37;25.97;;;12.40;95.70;;;;;;5103747;28;20460;-69
2023/04/17 08:30:57;;;;;;;27.40;24.95;;;12.50;95.30;;;;;;5105129;27;20512;-69
2023/04/17 08:33:24;;;;;;;27.70;25.30;;;12.70;94.70;;;;;;5104902;27;20626;-69
2023/04/17 08:35:52;;;;;;;26.15;23.85;;;12.90;94.10;;;;;;5108160;28;20423;-69
2023/04/17 08:38:19;;;;;;;26.50;24.20;;;13.20;93.40;;;;;;5102737;28;20421;-69
2023/04/17 08:40:50;;;;;;;25.10;22.98;;;13.40;92.90;;;;;;5103133;27;20772;-69
2023/04/17 08:43:19;;;;;;;24.10;22.00;;;13.60;91.90;;;;;;5102615;27;20579;-69
2023/04/17 08:45:52;;;;;;;25.10;22.63;;;13.90;91.00;;;;;;5102471;28;20436;-69
2023/04/17 08:48:19;;;;;;;24.60;21.80;;;14.10;90.50;;;;;;5105360;28;20420;-69
2023/04/17 08:50:48;;;;;;;22.55;20.75;;;14.10;88.50;;;;;;5107671;28;20420;-69
2023/04/17 08:53:16;;;;;;;23.08;21.17;;;14.10;87.70;;;;;;5103580;28;20544;-70
2023/04/17 08:55:43;;;;;;;21.65;19.85;;;14.00;87.80;;;;;;5106418;27;21345;-69
2023/04/17 08:58:11;;;;;;;22.65;20.45;;;13.90;87.90;;;;;;5102453;28;20436;-69
2023/04/17 09:00:40;;;;;;;23.00;20.90;;;13.90;88.60;;;;;;5102025;28;20459;-69
2023/04/17 09:03:08;;;;;;;22.85;20.95;;;13.80;88.90;;;;;;5105971;28;20493;-69
2023/04/17 09:05:36;;;;;;;21.45;19.60;;;13.70;89.40;;;;;;5107531;28;20423;-68
2023/04/17 09:08:08;;;;;;;21.20;19.50;;;13.70;88.80;;;;;;5103950;28;20455;-71
2023/04/17 09:10:38;;;;;;;19.98;18.27;;;13.70;88.70;;;;;;5100707;28;20427;-71
2023/04/17 09:13:05;;;;;;;20.70;18.90;;;13.80;88.30;;;;;;5101117;28;20435;-71
2023/04/17 09:15:32;;;;;;;18.87;17.27;;;13.80;88.40;;;;;;5101247;28;20484;-71
2023/04/17 09:17:59;;;;;;;18.58;16.88;;;13.90;87.70;;;;;;5105021;27;20432;-71
2023/04/17 09:20:26;;;;;;;15.98;14.65;;;13.90;85.80;;;;;;5100619;28;20436;-70
2023/04/17 09:23:00;;;;;;;15.88;14.57;;;13.90;84.70;;;;;;5102838;28;20544;-71
2023/04/17 09:25:27;;;;;;;15.60;14.30;;;14.00;82.50;;;;;;5104965;28;20432;-70
2023/04/17 09:28:01;;;;;;;17.23;15.73;;;14.10;80.30;;;;;;5098543;27;20493;-71
2023/04/17 09:30:28;;;;;;;16.35;14.95;;;14.40;80.90;;;;;;5096957;28;20579;-71
2023/04/17 09:33:04;;;;;;;15.67;14.37;;;14.90;78.70;;;;;;5097998;28;20480;-71
2023/04/17 09:35:31;;;;;;;16.40;14.90;;;15.30;75.50;;;;;;5102293;28;20420;-71
2023/04/17 09:37:59;;;;;;;16.58;15.07;;;15.50;73.70;;;;;;5095532;27;20441;-72
2023/04/17 09:40:35;;;;;;;17.13;15.73;;;15.60;74.10;;;;;;5102048;28;20503;-71
2023/04/17 09:43:05;;;;;;;17.50;15.90;;;15.70;74.30;;;;;;5104987;28;20427;-71
2023/04/17 09:45:35;;;;;;;18.45;16.95;;;15.90;73.50;;;;;;5095035;27;20513;-71
2023/04/17 09:48:04;;;;;;;17.35;15.95;;;16.00;72.50;;;;;;5104654;28;20489;-72
2023/04/17 09:50:33;;;;;;;17.30;15.82;;;16.10;71.00;;;;;;5106175;27;22238;-71
2023/04/17 09:52:59;;;;;;;17.48;15.98;;;16.30;70.20;;;;;;5103668;27;20455;-72
2023/04/17 09:55:28;;;;;;;16.70;15.40;;;16.60;68.10;;;;;;5106991;27;20445;-71
2023/04/17 09:57:57;;;;;;;17.55;16.15;;;16.80;66.20;;;;;;5100138;28;20430;-71
2023/04/17 10:00:26;;;;;;;17.13;15.70;;;17.00;64.80;;;;;;5102253;27;20438;-71
2023/04/17 10:02:55;;;;;;;17.70;16.20;;;17.20;63.90;;;;;;5103006;28;20414;-68
2023/04/17 10:05:23;;;;;;;17.33;15.82;;;17.40;62.30;;;;;;5101967;28;20428;-73
2023/04/17 10:07:50;;;;;;;17.40;15.90;;;17.70;64.10;;;;;;5101042;28;20459;-73
2023/04/17 10:10:23;;;;;;;16.90;15.60;;;18.00;61.70;;;;;;5100209;28;20428;-74
2023/04/17 10:12:54;;;;;;;16.55;15.15;;;18.40;61.20;;;;;;5105004;28;20997;-73
2023/04/17 10:15:23;;;;;;;16.07;14.63;;;18.60;57.70;;;;;;5102697;27;20572;-72
2023/04/17 10:17:51;;;;;;;14.25;13.02;;;18.70;55.60;;;;;;5104359;28;20434;-73
2023/04/17 10:20:43;;;;;;;14.00;13.00;;;18.80;54.90;;;;;;5105011;28;20439;-74
2023/04/17 10:23:31;;;;;;;13.80;12.70;;;18.80;52.70;;;;;;5103064;27;20926;-70
2023/04/17 10:26:40;;;;;;;13.32;12.30;;;18.40;51.10;;;;;;5109574;28;20503;-72
2023/04/17 10:29:07;;;;;;;13.65;12.65;;;18.00;52.00;;;;;;5098766;28;20797;-71
2023/04/17 10:32:15;;;;;;;14.13;12.82;;;17.90;52.90;;;;;;5098127;27;20431;-72
2023/04/17 10:34:43;;;;;;;13.07;11.98;;;17.70;52.30;;;;;;5099577;28;20456;-70
2023/04/17 10:37:14;;;;;;;12.27;11.15;;;17.70;53.20;;;;;;5098627;28;20439;-71
2023/04/17 10:39:56;;;;;;;10.85;10.00;;;17.80;52.90;;;;;;5103660;28;20427;-72
2023/04/17 10:42:24;;;;;;;10.48;9.57;;;18.20;50.50;;;;;;5101917;27;20448;-71
2023/04/17 10:44:55;;;;;;;10.10;9.30;;;18.40;47.60;;;;;;5102880;27;20480;-71
2023/04/17 10:47:22;;;;;;;10.65;9.75;;;18.50;47.40;;;;;;5101906;28;20438;-71
2023/04/17 10:49:51;;;;;;;10.70;9.60;;;18.60;47.60;;;;;;5102787;28;20432;-71
2023/04/17 10:52:38;;;;;;;10.48;9.68;;;18.60;47.20;;;;;;5104625;28;20508;-71
2023/04/17 10:55:07;;;;;;;11.50;10.50;;;18.80;46.80;;;;;;5097952;28;20416;-73
2023/04/17 10:57:52;;;;;;;10.13;9.33;;;19.00;44.80;;;;;;5096175;28;20803;-72
2023/04/17 11:00:20;;;;;;;9.65;8.85;;;19.20;45.40;;;;;;5101356;27;20435;-72
2023/04/17 11:02:49;;;;;;;10.40;9.40;;;19.60;45.50;;;;;;5104502;28;20421;-72
2023/04/17 11:05:17;;;;;;;10.00;9.00;;;20.00;43.50;;;;;;5101847;27;20832;-74
2023/04/17 11:07:49;;;;;;;8.50;7.70;;;20.20;45.50;;;;;;5092447;28;20439;-71
2023/04/17 11:10:18;;;;;;;8.93;8.18;;;20.40;43.80;;;;;;5106886;27;20472;-73
2023/04/17 11:12:48;;;;;;;8.40;7.70;;;20.40;43.60;;;;;;5101011;27;20426;-71
2023/04/17 11:15:16;;;;;;;8.85;8.15;;;20.60;43.40;;;;;;5099810;27;20541;-75
2023/04/17 11:17:47;;;;;;;8.95;8.25;;;20.90;42.10;;;;;;5093829;28;20890;-76
2023/04/17 11:20:17;;;;;;;9.48;8.68;;;21.00;42.80;;;;;;5100233;28;20519;-75
2023/04/17 11:22:46;;;;;;;9.40;8.60;;;21.00;43.30;;;;;;5096545;28;20493;-70
2023/04/17 11:25:20;;;;;;;8.63;7.93;;;20.80;42.50;;;;;;5100291;27;20794;-73
2023/04/17 11:27:50;;;;;;;10.50;8.50;;;20.80;42.70;;;;;;5097089;28;20455;-73
2023/04/17 11:30:25;;;;;;;8.90;8.10;;;20.70;42.00;;;;;;5095012;28;20507;-75
2023/04/17 11:32:52;;;;;;;9.57;8.73;;;20.60;43.10;;;;;;5093895;28;20817;-76
2023/04/17 11:35:23;;;;;;;9.00;8.20;;;20.70;41.80;;;;;;5103485;27;20904;-71
2023/04/17 11:38:11;;;;;;;8.82;8.10;;;20.80;41.70;;;;;;5103029;28;20431;-74
2023/04/17 11:40:46;;;;;;;9.20;8.45;;;20.70;41.40;;;;;;5095940;28;20878;-72
2023/04/17 11:43:13;;;;;;;9.80;9.00;;;20.60;41.50;;;;;;5097954;27;20775;-75
2023/04/17 11:45:41;;;;;;;9.00;8.30;;;20.40;41.30;;;;;;5101152;27;20522;-74
2023/04/17 11:48:09;;;;;;;9.55;8.70;;;20.30;41.90;;;;;;5109548;27;20481;-73
2023/04/17 11:50:36;;;;;;;9.40;8.50;;;20.40;41.10;;;;;;5103666;28;20439;-74
2023/04/17 11:53:04;;;;;;;8.40;7.60;;;20.70;42.30;;;;;;5099539;28;20527;-75
2023/04/17 11:55:33;;;;;;;8.40;7.70;;;21.20;41.10;;;;;;5100529;28;20896;-74
2023/04/17 11:58:02;;;;;;;8.82;8.02;;;21.50;39.30;;;;;;5103262;28;20435;-74
2023/04/17 12:00:30;;;;;;;7.88;7.18;;;21.70;39.40;;;;;;5093902;28;20467;-75
2023/04/17 12:02:58;;;;;;;8.55;7.75;;;21.80;38.20;;;;;;5103980;28;20753;-75
2023/04/17 12:05:26;;;;;;;8.07;7.38;;;22.00;37.80;;;;;;5103633;28;20424;-75
2023/04/17 12:08:00;;;;;;;7.65;7.10;;;22.30;37.60;;;;;;5100482;28;20952;-76
2023/04/17 12:10:38;;;;;;;6.55;5.95;;;22.80;36.70;;;;;;5100199;28;20428;-74
2023/04/17 12:13:05;;;;;;;6.90;6.40;;;23.30;36.10;;;;;;5093190;28;20736;-73
2023/04/17 12:15:31;;;;;;;7.00;6.40;;;23.60;35.30;;;;;;5098556;28;20723;-71
2023/04/17 12:17:58;;;;;;;6.90;6.20;;;23.30;35.40;;;;;;5099805;28;20439;-67
2023/04/17 12:20:25;;;;;;;6.28;5.68;;;23.10;37.10;;;;;;5101144;28;20505;-69
2023/04/17 12:22:52;;;;;;;6.00;5.50;;;22.90;36.80;;;;;;5100692;28;20432;-71
2023/04/17 12:25:18;;;;;;;6.40;5.80;;;22.80;38.30;;;;;;5099770;28;20428;-68
2023/04/17 12:27:46;;;;;;;6.30;5.70;;;22.90;40.40;;;;;;5097764;28;20969;-71
2023/04/17 12:30:15;;;;;;;6.10;5.60;;;22.90;36.30;;;;;;5091762;28;20435;-73
2023/04/17 12:32:44;;;;;;;6.70;6.10;;;22.70;35.80;;;;;;5096373;28;20801;-71
2023/04/17 12:35:11;;;;;;;6.30;5.80;;;22.50;35.70;;;;;;5105957;28;20514;-71